createdAt,value
2023-05-14T00:00:17.429Z,0
2023-05-14T00:01:33.716Z,0
2023-05-14T00:02:50.020Z,0
2023-05-14T00:04:06.320Z,0
2023-05-14T00:05:22.601Z,0
2023-05-14T00:06:38.906Z,0
2023-05-14T00:07:55.190Z,0
2023-05-14T00:09:11.477Z,0
2023-05-14T00:10:27.775Z,0
2023-05-14T00:11:44.082Z,0
2023-05-14T00:13:00.374Z,0
2023-05-14T00:14:16.658Z,0
2023-05-14T00:15:32.959Z,0
2023-05-14T00:16:48.276Z,0
2023-05-14T00:18:04.565Z,0
2023-05-14T00:19:20.864Z,0
2023-05-14T00:20:37.154Z,0
2023-05-14T00:21:53.439Z,0
2023-05-14T00:23:09.731Z,0
2023-05-14T00:24:26.027Z,0
2023-05-14T00:25:42.322Z,0
2023-05-14T00:26:58.625Z,0
2023-05-14T00:28:14.912Z,0
2023-05-14T00:29:31.214Z,0
2023-05-14T00:30:47.508Z,0
2023-05-14T00:32:03.791Z,0
2023-05-14T00:33:19.097Z,0
2023-05-14T00:34:35.397Z,0
2023-05-14T00:35:51.697Z,0
2023-05-14T00:37:07.989Z,0
2023-05-14T00:38:24.282Z,0
2023-05-14T00:39:40.580Z,0
2023-05-14T00:40:56.871Z,0
2023-05-14T00:42:13.154Z,0
2023-05-14T00:43:29.449Z,0
2023-05-14T00:44:45.755Z,0
2023-05-14T00:46:02.045Z,0
2023-05-14T00:47:18.338Z,0
2023-05-14T00:48:34.620Z,0
2023-05-14T00:49:49.936Z,0
2023-05-14T00:51:06.220Z,0
2023-05-14T00:52:22.527Z,0
2023-05-14T00:53:38.817Z,0
2023-05-14T00:54:55.119Z,0
2023-05-14T00:56:11.408Z,0
2023-05-14T00:57:27.706Z,0
2023-05-14T00:58:43.986Z,0
2023-05-14T01:00:00.286Z,0
2023-05-14T01:01:16.577Z,0
2023-05-14T01:02:32.867Z,0
2023-05-14T01:03:49.166Z,0
2023-05-14T01:05:05.469Z,0
2023-05-14T01:06:20.777Z,0
2023-05-14T01:07:37.070Z,0
2023-05-14T01:08:53.352Z,0
2023-05-14T01:10:09.649Z,0
2023-05-14T01:11:25.936Z,0
2023-05-14T01:12:42.242Z,0
2023-05-14T01:13:58.536Z,0
2023-05-14T01:15:14.817Z,0
2023-05-14T01:16:31.113Z,0
2023-05-14T01:17:47.421Z,0
2023-05-14T01:19:03.716Z,0
2023-05-14T01:20:20.006Z,0
2023-05-14T01:21:36.297Z,0
2023-05-14T01:22:51.601Z,0
2023-05-14T01:24:07.899Z,0
2023-05-14T01:25:24.198Z,0
2023-05-14T01:26:40.483Z,0
2023-05-14T01:27:56.777Z,0
2023-05-14T01:29:13.064Z,0
2023-05-14T01:30:29.377Z,0
2023-05-14T01:31:45.656Z,0
2023-05-14T01:33:01.958Z,0
2023-05-14T01:34:18.260Z,0
2023-05-14T01:35:34.558Z,0
2023-05-14T01:36:50.847Z,0
2023-05-14T01:38:07.136Z,0
2023-05-14T01:39:22.435Z,0
2023-05-14T01:40:38.737Z,0
2023-05-14T01:41:55.029Z,0
2023-05-14T01:43:11.326Z,0
2023-05-14T01:44:27.611Z,0
2023-05-14T01:45:43.904Z,0
2023-05-14T01:47:00.209Z,0
2023-05-14T01:48:16.488Z,0
2023-05-14T01:49:32.795Z,0
2023-05-14T01:50:49.079Z,0
2023-05-14T01:52:05.384Z,0
2023-05-14T01:53:21.673Z,0
2023-05-14T01:54:37.969Z,0
2023-05-14T01:55:53.284Z,0
2023-05-14T01:57:09.578Z,0
2023-05-14T01:58:25.861Z,0
2023-05-14T01:59:42.156Z,0
2023-05-14T02:00:58.448Z,0
2023-05-14T02:02:14.749Z,0
2023-05-14T02:03:31.051Z,0
2023-05-14T02:04:47.340Z,0
2023-05-14T02:06:03.627Z,0
2023-05-14T02:07:19.913Z,0
2023-05-14T02:08:36.214Z,0
2023-05-14T02:09:52.506Z,0
2023-05-14T02:11:08.806Z,0
2023-05-14T02:12:24.119Z,0
2023-05-14T02:13:40.408Z,0
2023-05-14T02:14:56.691Z,0
2023-05-14T02:16:13.000Z,0
2023-05-14T02:17:29.298Z,0
2023-05-14T02:18:44.599Z,0
2023-05-14T02:20:00.890Z,0
2023-05-14T02:21:17.192Z,0
2023-05-14T02:22:33.495Z,0
2023-05-14T02:23:49.770Z,0
2023-05-14T02:25:06.073Z,0
2023-05-14T02:26:22.357Z,0
2023-05-14T02:27:38.668Z,0
2023-05-14T02:28:54.953Z,0
2023-05-14T02:30:11.255Z,0
2023-05-14T02:31:27.536Z,0
2023-05-14T02:32:43.837Z,0
2023-05-14T02:34:00.134Z,0
2023-05-14T02:35:15.450Z,0
2023-05-14T02:36:31.740Z,0
2023-05-14T02:37:48.026Z,0
2023-05-14T02:39:04.312Z,0
2023-05-14T02:40:20.614Z,0
2023-05-14T02:41:36.898Z,0
2023-05-14T02:42:53.190Z,0
2023-05-14T02:45:25.793Z,0
2023-05-14T02:46:42.089Z,0
2023-05-14T02:47:58.316Z,1
2023-05-14T02:49:14.619Z,0
2023-05-14T02:50:30.912Z,0
2023-05-14T02:51:46.175Z,1
2023-05-14T02:53:02.408Z,1
2023-05-14T02:54:18.715Z,0
2023-05-14T02:55:34.999Z,0
2023-05-14T02:56:51.253Z,2
2023-05-14T02:58:07.486Z,1
2023-05-14T02:59:23.746Z,1
2023-05-14T03:00:40.031Z,0
2023-05-14T03:01:56.339Z,0
2023-05-14T03:03:12.589Z,3
2023-05-14T03:04:28.815Z,3
2023-05-14T03:07:01.298Z,5
2023-05-14T03:08:16.570Z,6
2023-05-14T03:09:32.791Z,5
2023-05-14T03:10:49.042Z,2
2023-05-14T03:12:05.270Z,5
2023-05-14T03:13:21.513Z,7
2023-05-14T03:14:37.751Z,10
2023-05-14T03:15:53.994Z,10
2023-05-14T03:17:10.243Z,13
2023-05-14T03:18:26.479Z,16
2023-05-14T03:20:58.961Z,19
2023-05-14T03:22:15.191Z,24
2023-05-14T03:23:31.449Z,25
2023-05-14T03:24:46.701Z,26
2023-05-14T03:26:02.930Z,24
2023-05-14T03:27:19.172Z,29
2023-05-14T03:29:51.666Z,32
2023-05-14T03:31:06.923Z,38
2023-05-14T03:32:22.172Z,38
2023-05-14T03:33:38.418Z,42
2023-05-14T03:34:54.644Z,49
2023-05-14T03:36:10.899Z,56
2023-05-14T03:37:27.130Z,63
2023-05-14T03:38:43.379Z,71
2023-05-14T03:39:59.617Z,77
2023-05-14T03:41:15.855Z,85
2023-05-14T03:42:32.102Z,93
2023-05-14T03:43:47.355Z,104
2023-05-14T03:45:02.615Z,107
2023-05-14T03:46:18.844Z,111
2023-05-14T03:47:35.089Z,117
2023-05-14T03:48:51.336Z,131
2023-05-14T03:50:07.572Z,139
2023-05-14T03:51:23.810Z,147
2023-05-14T03:52:40.041Z,158
2023-05-14T03:53:56.288Z,166
2023-05-14T03:55:12.537Z,172
2023-05-14T03:56:28.761Z,176
2023-05-14T03:57:45.008Z,177
2023-05-14T03:59:01.252Z,180
2023-05-14T04:00:17.497Z,177
2023-05-14T04:01:32.753Z,177
2023-05-14T04:02:48.992Z,181
2023-05-14T04:04:05.235Z,188
2023-05-14T04:05:21.470Z,194
2023-05-14T04:06:37.699Z,210
2023-05-14T04:07:53.939Z,233
2023-05-14T04:09:10.189Z,260
2023-05-14T04:11:42.658Z,316
2023-05-14T04:12:58.909Z,339
2023-05-14T04:14:15.143Z,363
2023-05-14T04:15:31.389Z,395
2023-05-14T04:16:47.621Z,418
2023-05-14T04:18:02.869Z,443
2023-05-14T04:19:19.110Z,464
2023-05-14T04:20:35.355Z,485
2023-05-14T04:21:51.599Z,510
2023-05-14T04:23:07.847Z,537
2023-05-14T04:24:24.082Z,566
2023-05-14T04:25:40.312Z,598
2023-05-14T04:26:56.561Z,619
2023-05-14T04:28:12.797Z,647
2023-05-14T04:29:29.030Z,674
2023-05-14T04:30:45.281Z,705
2023-05-14T04:32:01.525Z,742
2023-05-14T04:33:17.751Z,768
2023-05-14T04:34:33.011Z,793
2023-05-14T04:35:49.255Z,814
2023-05-14T04:37:05.486Z,830
2023-05-14T04:38:21.738Z,849
2023-05-14T04:39:37.980Z,872
2023-05-14T04:40:54.207Z,915
2023-05-14T04:42:10.460Z,950
2023-05-14T04:43:26.687Z,955
2023-05-14T04:44:42.925Z,966
2023-05-14T04:45:59.164Z,1061
2023-05-14T04:47:15.419Z,1117
2023-05-14T04:48:31.649Z,1165
2023-05-14T04:49:47.000Z,1136
2023-05-14T04:51:03.153Z,1162
2023-05-14T04:52:19.391Z,1204
2023-05-14T04:53:35.628Z,1232
2023-05-14T04:54:51.864Z,1267
2023-05-14T04:56:08.119Z,1275
2023-05-14T04:57:24.349Z,1293
2023-05-14T04:58:40.586Z,1302
2023-05-14T04:59:56.816Z,1337
2023-05-14T05:01:13.078Z,1364
2023-05-14T05:02:29.305Z,1385
2023-05-14T05:03:45.534Z,1427
2023-05-14T05:05:01.776Z,1431
2023-05-14T05:06:18.027Z,1439
2023-05-14T05:07:33.272Z,1423
2023-05-14T05:08:49.527Z,1401
2023-05-14T05:10:05.753Z,1403
2023-05-14T05:11:22.005Z,1400
2023-05-14T05:12:38.229Z,1373
2023-05-14T05:13:54.488Z,1399
2023-05-14T05:15:10.711Z,1426
2023-05-14T05:16:26.961Z,1451
2023-05-14T05:17:43.203Z,1435
2023-05-14T05:18:59.429Z,1518
2023-05-14T05:20:15.668Z,1756
2023-05-14T05:21:31.915Z,1807
2023-05-14T05:22:48.161Z,1785
2023-05-14T05:24:03.402Z,1838
2023-05-14T05:25:19.661Z,1931
2023-05-14T05:26:35.903Z,1977
2023-05-14T05:27:52.128Z,2066
2023-05-14T05:29:08.381Z,2051
2023-05-14T05:30:24.605Z,2047
2023-05-14T05:31:40.861Z,2068
2023-05-14T05:32:57.086Z,2106
2023-05-14T05:34:13.333Z,2156
2023-05-14T05:35:29.573Z,2210
2023-05-14T05:36:45.802Z,2227
2023-05-14T05:38:02.052Z,2239
2023-05-14T05:39:18.294Z,2280
2023-05-14T05:40:33.541Z,2298
2023-05-14T05:41:49.778Z,2296
2023-05-14T05:43:06.034Z,2296
2023-05-14T05:44:22.270Z,2310
2023-05-14T05:45:38.498Z,2390
2023-05-14T05:46:54.742Z,2445
2023-05-14T05:48:10.986Z,2512
2023-05-14T05:49:27.216Z,2576
2023-05-14T05:50:43.462Z,2622
2023-05-14T05:51:59.710Z,2746
2023-05-14T05:53:15.952Z,2785
2023-05-14T05:54:32.175Z,2826
2023-05-14T05:55:48.420Z,2818
2023-05-14T05:57:03.681Z,2842
2023-05-14T05:58:19.928Z,2823
2023-05-14T06:00:52.392Z,2703
2023-05-14T06:02:08.636Z,3123
2023-05-14T06:03:24.878Z,3525
2023-05-14T06:04:41.115Z,3694
2023-05-14T06:05:57.353Z,3724
2023-05-14T06:07:13.606Z,3250
2023-05-14T06:08:29.845Z,3768
2023-05-14T06:09:46.075Z,3666
2023-05-14T06:11:02.320Z,3391
2023-05-14T06:12:18.549Z,3724
2023-05-14T06:13:33.820Z,3717
2023-05-14T06:14:50.047Z,3710
2023-05-14T06:16:06.289Z,3585
2023-05-14T06:17:22.530Z,3509
2023-05-14T06:18:38.771Z,3514
2023-05-14T06:19:55.005Z,3538
2023-05-14T06:21:11.248Z,3564
2023-05-14T06:22:27.485Z,3564
2023-05-14T06:23:43.741Z,3602
2023-05-14T06:24:59.970Z,3670
2023-05-14T06:26:16.203Z,3632
2023-05-14T06:27:32.448Z,3613
2023-05-14T06:28:48.687Z,3627
2023-05-14T06:30:03.944Z,3637
2023-05-14T06:31:20.185Z,3618
2023-05-14T06:32:36.417Z,3591
2023-05-14T06:33:51.697Z,3596
2023-05-14T06:35:07.924Z,3624
2023-05-14T06:36:24.171Z,3634
2023-05-14T06:37:40.401Z,3664
2023-05-14T06:38:56.644Z,3694
2023-05-14T06:40:12.896Z,3732
2023-05-14T06:41:29.118Z,3777
2023-05-14T06:42:45.359Z,3793
2023-05-14T06:44:01.605Z,3810
2023-05-14T06:45:17.845Z,3865
2023-05-14T06:46:34.094Z,3894
2023-05-14T06:47:50.316Z,3913
2023-05-14T06:49:06.561Z,3950
2023-05-14T06:50:21.810Z,3970
2023-05-14T06:51:38.063Z,4003
2023-05-14T06:52:54.294Z,4055
2023-05-14T06:54:10.536Z,4088
2023-05-14T06:55:26.786Z,4129
2023-05-14T06:56:43.017Z,4145
2023-05-14T06:57:59.250Z,4183
2023-05-14T06:59:15.502Z,4209
2023-05-14T07:00:31.742Z,4220
2023-05-14T07:01:47.975Z,4264
2023-05-14T07:03:04.208Z,4287
2023-05-14T07:04:20.452Z,4328
2023-05-14T07:05:36.706Z,4349
2023-05-14T07:06:51.956Z,4409
2023-05-14T07:08:08.202Z,4411
2023-05-14T07:09:24.450Z,4434
2023-05-14T07:10:40.664Z,4438
2023-05-14T07:11:56.903Z,4509
2023-05-14T07:13:13.143Z,4506
2023-05-14T07:14:29.386Z,4543
2023-05-14T07:15:45.625Z,4585
2023-05-14T07:17:01.864Z,4635
2023-05-14T07:18:18.111Z,4665
2023-05-14T07:19:34.345Z,4699
2023-05-14T07:20:50.596Z,4726
2023-05-14T07:22:06.837Z,4764
2023-05-14T07:23:22.084Z,4774
2023-05-14T07:24:38.326Z,4807
2023-05-14T07:25:54.575Z,4875
2023-05-14T07:27:10.806Z,4895
2023-05-14T07:28:27.038Z,4900
2023-05-14T07:29:43.278Z,4964
2023-05-14T07:30:59.530Z,4972
2023-05-14T07:32:15.764Z,5002
2023-05-14T07:33:31.997Z,5029
2023-05-14T07:34:48.238Z,5070
2023-05-14T07:36:04.478Z,5082
2023-05-14T07:37:20.718Z,5083
2023-05-14T07:38:36.961Z,5104
2023-05-14T07:39:52.222Z,5128
2023-05-14T07:42:24.700Z,5230
2023-05-14T07:43:40.952Z,5209
2023-05-14T07:44:57.177Z,5241
2023-05-14T07:46:13.417Z,5249
2023-05-14T07:47:29.654Z,5305
2023-05-14T07:48:45.892Z,5336
2023-05-14T07:50:02.141Z,5370
2023-05-14T07:51:18.370Z,5415
2023-05-14T07:52:34.611Z,5440
2023-05-14T07:53:50.873Z,5493
2023-05-14T07:55:07.092Z,5501
2023-05-14T07:56:22.360Z,5521
2023-05-14T07:57:38.598Z,5498
2023-05-14T07:58:54.838Z,5564
2023-05-14T08:01:27.306Z,5570
2023-05-14T08:02:43.551Z,5494
2023-05-14T08:03:59.796Z,5551
2023-05-14T08:05:16.020Z,5584
2023-05-14T08:06:32.266Z,5450
2023-05-14T08:07:48.517Z,5628
2023-05-14T08:09:04.747Z,6215
2023-05-14T08:10:20.997Z,6357
2023-05-14T08:11:37.235Z,6279
2023-05-14T08:12:52.490Z,6327
2023-05-14T08:14:08.727Z,6215
2023-05-14T08:15:24.960Z,6239
2023-05-14T08:16:41.202Z,6163
2023-05-14T08:17:57.437Z,6258
2023-05-14T08:19:13.674Z,6492
2023-05-14T08:20:29.933Z,6488
2023-05-14T08:21:46.154Z,6375
2023-05-14T08:23:02.392Z,6414
2023-05-14T08:24:18.632Z,6492
2023-05-14T08:25:34.892Z,6541
2023-05-14T08:26:51.129Z,6512
2023-05-14T08:28:07.385Z,7114
2023-05-14T08:29:22.614Z,5990
2023-05-14T08:30:38.867Z,5682
2023-05-14T08:31:55.092Z,3714
2023-05-14T08:33:11.346Z,6469
2023-05-14T08:34:27.579Z,6459
2023-05-14T08:35:43.816Z,6924
2023-05-14T08:37:00.051Z,6632
2023-05-14T08:38:16.293Z,5652
2023-05-14T08:39:32.541Z,5447
2023-05-14T08:40:48.772Z,5484
2023-05-14T08:42:05.026Z,5347
2023-05-14T08:43:21.249Z,2629
2023-05-14T08:44:37.500Z,6296
2023-05-14T08:45:52.744Z,7511
2023-05-14T08:47:09.012Z,6409
2023-05-14T08:48:25.000Z,5417
2023-05-14T08:49:41.473Z,5609
2023-05-14T08:50:57.698Z,8360
2023-05-14T08:52:13.939Z,4653
2023-05-14T08:53:30.182Z,7437
2023-05-14T08:54:46.455Z,5504
2023-05-14T08:56:02.678Z,5482
2023-05-14T08:57:18.920Z,5901
2023-05-14T08:58:35.163Z,5671
2023-05-14T08:59:51.381Z,4739
2023-05-14T09:01:07.641Z,7346
2023-05-14T09:02:22.892Z,5563
2023-05-14T09:03:39.120Z,5666
2023-05-14T09:04:55.366Z,3312
2023-05-14T09:06:11.594Z,6016
2023-05-14T09:07:27.848Z,7057
2023-05-14T09:08:44.000Z,7175
2023-05-14T09:10:00.321Z,7515
2023-05-14T09:11:16.567Z,7250
2023-05-14T09:12:32.800Z,6638
2023-05-14T09:13:49.048Z,7174
2023-05-14T09:15:05.276Z,6069
2023-05-14T09:16:21.515Z,7199
2023-05-14T09:17:37.751Z,6796
2023-05-14T09:18:53.012Z,7216
2023-05-14T09:20:09.265Z,6747
2023-05-14T09:21:25.493Z,7323
2023-05-14T09:22:41.742Z,8520
2023-05-14T09:23:57.981Z,3683
2023-05-14T09:25:14.225Z,7967
2023-05-14T09:27:46.700Z,5310
2023-05-14T09:29:02.936Z,5439
2023-05-14T09:31:35.418Z,7807
2023-05-14T09:32:51.664Z,3774
2023-05-14T09:34:07.892Z,6543
2023-05-14T09:35:23.153Z,6751
2023-05-14T09:36:39.392Z,8468
2023-05-14T09:37:55.628Z,6732
2023-05-14T09:39:11.861Z,5501
2023-05-14T09:40:28.118Z,5327
2023-05-14T09:41:44.340Z,5164
2023-05-14T09:43:00.580Z,5085
2023-05-14T09:44:16.851Z,5109
2023-05-14T09:45:33.065Z,5157
2023-05-14T09:46:49.314Z,5199
2023-05-14T09:48:05.546Z,5220
2023-05-14T09:49:21.782Z,5217
2023-05-14T09:50:38.020Z,5314
2023-05-14T09:51:53.276Z,5280
2023-05-14T09:53:09.538Z,5252
2023-05-14T09:54:25.777Z,5255
2023-05-14T09:55:41.997Z,5190
2023-05-14T09:56:58.234Z,5204
2023-05-14T09:58:14.476Z,5159
2023-05-14T09:59:30.727Z,5137
2023-05-14T10:00:46.959Z,5172
2023-05-14T10:02:03.204Z,5146
2023-05-14T10:03:19.432Z,5195
2023-05-14T10:04:35.688Z,5177
2023-05-14T10:05:51.922Z,5063
2023-05-14T10:07:08.161Z,5051
2023-05-14T10:08:23.422Z,5017
2023-05-14T10:09:39.675Z,5001
2023-05-14T10:10:55.900Z,5071
2023-05-14T10:12:12.133Z,5044
2023-05-14T10:13:28.368Z,4969
2023-05-14T10:14:44.626Z,4892
2023-05-14T10:16:00.857Z,4769
2023-05-14T10:17:17.095Z,4964
2023-05-14T10:18:33.333Z,4768
2023-05-14T10:19:49.582Z,4737
2023-05-14T10:21:05.806Z,4765
2023-05-14T10:22:22.051Z,4657
2023-05-14T10:23:38.287Z,4810
2023-05-14T10:24:53.552Z,5253
2023-05-14T10:26:09.788Z,4872
2023-05-14T10:27:26.028Z,5186
2023-05-14T10:28:42.263Z,4958
2023-05-14T10:29:58.501Z,4731
2023-05-14T10:31:14.750Z,4249
2023-05-14T10:32:30.991Z,4882
2023-05-14T10:33:47.228Z,3970
2023-05-14T10:35:03.476Z,3701
2023-05-14T10:36:19.714Z,3460
2023-05-14T10:37:35.938Z,3266
2023-05-14T10:38:52.187Z,3219
2023-05-14T10:40:08.445Z,3017
2023-05-14T10:41:23.681Z,2688
2023-05-14T10:42:39.914Z,2286
2023-05-14T10:43:56.165Z,2236
2023-05-14T10:45:12.395Z,2189
2023-05-14T10:46:28.637Z,1990
2023-05-14T10:47:44.917Z,1737
2023-05-14T10:49:00.168Z,1812
2023-05-14T10:50:16.388Z,1912
2023-05-14T10:52:48.855Z,1721
2023-05-14T10:54:05.098Z,1626
2023-05-14T10:55:21.339Z,1520
2023-05-14T10:56:37.585Z,1483
2023-05-14T10:59:10.091Z,1454
2023-05-14T11:00:26.301Z,1549
2023-05-14T11:01:42.537Z,1479
2023-05-14T11:02:58.773Z,1462
2023-05-14T11:04:15.031Z,1416
2023-05-14T11:05:30.275Z,1368
2023-05-14T11:06:46.521Z,1343
2023-05-14T11:08:02.756Z,1330
2023-05-14T11:09:19.006Z,1292
2023-05-14T11:10:35.242Z,1287
2023-05-14T11:11:51.473Z,1253
2023-05-14T11:13:07.715Z,1218
2023-05-14T11:14:23.951Z,1144
2023-05-14T11:15:40.194Z,1259
2023-05-14T11:16:56.429Z,1087
2023-05-14T11:18:12.666Z,1049
2023-05-14T11:19:28.909Z,995
2023-05-14T11:20:45.161Z,967
2023-05-14T11:22:00.410Z,1012
2023-05-14T11:23:16.655Z,1048
2023-05-14T11:24:32.894Z,1123
2023-05-14T11:25:49.133Z,1184
2023-05-14T11:27:05.375Z,1312
2023-05-14T11:28:21.603Z,1369
2023-05-14T11:29:37.857Z,1481
2023-05-14T11:30:54.107Z,1536
2023-05-14T11:32:10.319Z,1544
2023-05-14T11:33:26.578Z,1407
2023-05-14T11:34:42.800Z,1431
2023-05-14T11:35:59.057Z,1346
2023-05-14T11:37:15.287Z,1381
2023-05-14T11:39:46.778Z,1389
2023-05-14T11:41:03.027Z,1382
2023-05-14T11:42:19.261Z,1403
2023-05-14T11:44:51.732Z,1390
2023-05-14T11:46:07.973Z,1397
2023-05-14T11:47:24.210Z,1398
2023-05-14T11:49:56.697Z,1451
2023-05-14T11:51:11.985Z,1452
2023-05-14T11:52:27.207Z,1439
2023-05-14T11:53:43.449Z,1478
2023-05-14T11:54:59.705Z,1470
2023-05-14T11:56:15.932Z,1501
2023-05-14T11:57:32.179Z,1485
2023-05-14T11:58:48.406Z,1503
2023-05-14T12:00:04.680Z,1520
2023-05-14T12:01:20.886Z,1527
2023-05-14T12:02:37.129Z,1534
2023-05-14T12:03:52.425Z,1546
2023-05-14T12:05:07.654Z,1557
2023-05-14T12:06:23.887Z,1574
2023-05-14T12:07:40.162Z,1572
2023-05-14T12:08:56.378Z,1568
2023-05-14T12:10:12.607Z,1584
2023-05-14T12:11:28.877Z,1586
2023-05-14T12:12:45.086Z,1617
2023-05-14T12:14:01.331Z,1646
2023-05-14T12:15:17.591Z,1691
2023-05-14T12:16:33.807Z,1766
2023-05-14T12:17:50.059Z,1828
2023-05-14T12:19:06.284Z,1905
2023-05-14T12:20:22.558Z,2011
2023-05-14T12:21:37.779Z,2097
2023-05-14T12:22:54.017Z,2150
2023-05-14T12:24:10.259Z,2189
2023-05-14T12:26:42.771Z,2282
2023-05-14T12:27:58.975Z,2363
2023-05-14T12:29:15.225Z,2503
2023-05-14T12:30:31.467Z,2636
2023-05-14T12:31:47.693Z,2770
2023-05-14T12:33:03.967Z,2926
2023-05-14T12:34:20.173Z,3014
2023-05-14T12:35:36.447Z,3150
2023-05-14T12:36:52.652Z,3176
2023-05-14T12:38:07.909Z,3143
2023-05-14T12:39:24.153Z,3080
2023-05-14T12:40:40.405Z,3088
2023-05-14T12:41:56.628Z,3128
2023-05-14T12:43:12.876Z,3053
2023-05-14T12:44:29.108Z,2986
2023-05-14T12:45:45.349Z,2983
2023-05-14T12:47:01.596Z,2994
2023-05-14T12:48:17.837Z,3010
2023-05-14T12:49:34.071Z,2932
2023-05-14T12:50:50.309Z,2941
2023-05-14T12:52:06.558Z,2934
2023-05-14T12:53:22.789Z,2924
2023-05-14T12:54:38.075Z,2887
2023-05-14T12:55:54.292Z,2874
2023-05-14T12:57:10.531Z,2843
2023-05-14T12:58:26.760Z,2811
2023-05-14T12:59:43.001Z,2734
2023-05-14T13:00:59.249Z,2747
2023-05-14T13:02:15.494Z,2794
2023-05-14T13:03:31.757Z,2885
2023-05-14T13:04:48.003Z,2980
2023-05-14T13:06:04.213Z,3038
2023-05-14T13:07:20.449Z,3111
2023-05-14T13:08:36.685Z,3104
2023-05-14T13:09:52.929Z,3180
2023-05-14T13:11:08.175Z,3145
2023-05-14T13:12:24.423Z,3277
2023-05-14T13:13:40.670Z,3299
2023-05-14T13:14:56.903Z,3397
2023-05-14T13:16:13.147Z,3402
2023-05-14T13:17:29.391Z,3363
2023-05-14T13:18:45.626Z,3388
2023-05-14T13:20:01.853Z,3512
2023-05-14T13:21:18.100Z,3548
2023-05-14T13:22:34.342Z,3544
2023-05-14T13:23:50.578Z,3592
2023-05-14T13:25:06.818Z,3661
2023-05-14T13:26:23.068Z,3630
2023-05-14T13:27:38.311Z,3638
2023-05-14T13:28:54.545Z,3679
2023-05-14T13:31:27.036Z,3681
2023-05-14T13:32:43.271Z,3645
2023-05-14T13:33:59.509Z,3667
2023-05-14T13:35:15.742Z,3749
2023-05-14T13:36:31.992Z,3742
2023-05-14T13:37:48.239Z,3675
2023-05-14T13:39:04.473Z,3726
2023-05-14T13:40:20.714Z,3627
2023-05-14T13:41:36.961Z,3735
2023-05-14T13:42:53.197Z,3690
2023-05-14T13:44:08.443Z,3727
2023-05-14T13:45:24.688Z,3670
2023-05-14T13:46:40.922Z,3598
2023-05-14T13:47:57.163Z,3534
2023-05-14T13:49:13.407Z,3525
2023-05-14T13:50:29.636Z,3462
2023-05-14T13:51:45.891Z,3432
2023-05-14T13:53:02.115Z,3454
2023-05-14T13:54:18.365Z,3463
2023-05-14T13:55:34.636Z,3551
2023-05-14T13:56:50.845Z,3575
2023-05-14T13:58:07.090Z,3566
2023-05-14T13:59:23.322Z,3604
2023-05-14T14:00:39.688Z,3600
2023-05-14T14:01:55.957Z,3575
2023-05-14T14:03:12.164Z,3585
2023-05-14T14:04:28.406Z,3532
2023-05-14T14:05:44.648Z,3647
2023-05-14T14:07:00.885Z,3484
2023-05-14T14:08:17.121Z,3425
2023-05-14T14:09:33.389Z,3440
2023-05-14T14:10:49.609Z,3230
2023-05-14T14:12:05.842Z,3250
2023-05-14T14:13:22.087Z,3799
2023-05-14T14:14:38.352Z,3537
2023-05-14T14:15:54.568Z,3267
2023-05-14T14:17:09.811Z,3342
2023-05-14T14:18:26.046Z,3238
2023-05-14T14:19:42.292Z,3220
2023-05-14T14:20:58.531Z,3099
2023-05-14T14:22:14.781Z,3053
2023-05-14T14:23:31.017Z,3024
2023-05-14T14:24:47.251Z,2971
2023-05-14T14:26:03.494Z,3094
2023-05-14T14:27:19.762Z,2821
2023-05-14T14:28:35.971Z,2322
2023-05-14T14:29:52.217Z,3023
2023-05-14T14:31:08.454Z,3190
2023-05-14T14:32:24.736Z,3330
2023-05-14T14:33:39.948Z,2858
2023-05-14T14:34:56.181Z,2438
2023-05-14T14:36:12.420Z,2662
2023-05-14T14:37:28.665Z,2560
2023-05-14T14:38:44.904Z,2916
2023-05-14T14:40:01.151Z,2580
2023-05-14T14:41:17.421Z,2728
2023-05-14T14:42:33.627Z,2676
2023-05-14T14:43:49.906Z,2497
2023-05-14T14:45:06.105Z,2484
2023-05-14T14:46:22.337Z,2934
2023-05-14T14:47:38.579Z,2967
2023-05-14T14:48:54.822Z,2580
2023-05-14T14:50:10.077Z,2511
2023-05-14T14:51:26.318Z,2526
2023-05-14T14:52:42.551Z,2941
2023-05-14T14:53:58.799Z,2875
2023-05-14T14:55:15.076Z,2848
2023-05-14T14:56:31.289Z,2962
2023-05-14T14:57:47.530Z,3035
2023-05-14T14:59:03.751Z,3249
2023-05-14T15:00:20.003Z,3036
2023-05-14T15:01:36.248Z,2582
2023-05-14T15:02:52.487Z,2582
2023-05-14T15:04:07.742Z,2601
2023-05-14T15:05:23.977Z,2489
2023-05-14T15:06:40.255Z,2496
2023-05-14T15:07:56.461Z,2319
2023-05-14T15:09:12.706Z,2208
2023-05-14T15:10:28.937Z,2756
2023-05-14T15:11:45.172Z,2688
2023-05-14T15:13:01.420Z,2799
2023-05-14T15:14:17.651Z,2817
2023-05-14T15:15:33.890Z,2417
2023-05-14T15:16:50.141Z,2219
2023-05-14T15:18:06.373Z,1939
2023-05-14T15:19:22.612Z,1858
2023-05-14T15:21:54.111Z,2197
2023-05-14T15:23:10.358Z,2315
2023-05-14T15:24:26.629Z,2144
2023-05-14T15:25:42.833Z,2564
2023-05-14T15:26:59.073Z,2482
2023-05-14T15:28:15.321Z,2274
2023-05-14T15:29:31.551Z,2176
2023-05-14T15:30:47.829Z,1572
2023-05-14T15:32:04.020Z,2632
2023-05-14T15:33:20.318Z,1984
2023-05-14T15:34:36.506Z,2758
2023-05-14T15:35:52.788Z,1972
2023-05-14T15:37:08.001Z,2315
2023-05-14T15:38:24.235Z,1848
2023-05-14T15:39:40.495Z,1837
2023-05-14T15:40:56.724Z,2179
2023-05-14T15:42:13.007Z,2285
2023-05-14T15:43:29.196Z,2004
2023-05-14T15:44:45.447Z,2019
2023-05-14T15:46:01.689Z,1996
2023-05-14T15:47:17.932Z,1931
2023-05-14T15:48:34.155Z,1928
2023-05-14T15:49:50.441Z,2128
2023-05-14T15:51:06.646Z,1831
2023-05-14T15:52:22.918Z,1434
2023-05-14T15:53:38.172Z,1836
2023-05-14T15:54:54.374Z,1837
2023-05-14T15:56:10.618Z,2155
2023-05-14T15:57:26.860Z,1635
2023-05-14T15:58:43.101Z,1834
2023-05-14T15:59:59.332Z,1572
2023-05-14T16:01:15.579Z,1577
2023-05-14T16:02:31.814Z,1599
2023-05-14T16:03:48.053Z,1570
2023-05-14T16:05:04.293Z,1603
2023-05-14T16:06:20.542Z,1507
2023-05-14T16:07:36.771Z,1586
2023-05-14T16:08:53.057Z,1490
2023-05-14T16:10:08.267Z,1503
2023-05-14T16:11:24.518Z,1514
2023-05-14T16:12:40.755Z,1521
2023-05-14T16:13:56.988Z,1543
2023-05-14T16:15:13.228Z,1552
2023-05-14T16:16:29.473Z,1551
2023-05-14T16:17:45.719Z,1563
2023-05-14T16:19:01.961Z,1565
2023-05-14T16:20:18.196Z,1527
2023-05-14T16:21:34.431Z,1537
2023-05-14T16:22:50.662Z,1640
2023-05-14T16:24:06.914Z,1578
2023-05-14T16:25:23.154Z,1558
2023-05-14T16:26:38.401Z,1530
2023-05-14T16:27:54.640Z,1547
2023-05-14T16:29:10.000Z,1566
2023-05-14T16:30:27.127Z,1489
2023-05-14T16:31:43.367Z,1272
2023-05-14T16:32:59.596Z,1343
2023-05-14T16:34:15.852Z,1403
2023-05-14T16:35:32.087Z,1490
2023-05-14T16:36:48.316Z,1511
2023-05-14T16:38:04.564Z,1474
2023-05-14T16:39:20.801Z,1506
2023-05-14T16:40:37.051Z,1500
2023-05-14T16:41:53.323Z,1491
2023-05-14T16:43:08.571Z,1472
2023-05-14T16:44:24.784Z,1480
2023-05-14T16:45:41.006Z,1449
2023-05-14T16:46:57.300Z,1443
2023-05-14T16:48:13.000Z,1421
2023-05-14T16:49:29.728Z,1397
2023-05-14T16:50:45.980Z,1389
2023-05-14T16:52:02.224Z,1404
2023-05-14T16:53:18.451Z,1359
2023-05-14T16:54:34.695Z,1346
2023-05-14T16:55:50.934Z,1323
2023-05-14T16:57:07.170Z,1317
2023-05-14T16:58:23.421Z,1336
2023-05-14T16:59:38.660Z,1278
2023-05-14T17:00:54.909Z,1298
2023-05-14T17:02:11.146Z,1256
2023-05-14T17:03:27.381Z,1258
2023-05-14T17:04:43.637Z,1309
2023-05-14T17:05:59.876Z,1236
2023-05-14T17:07:16.098Z,1349
2023-05-14T17:08:32.337Z,1159
2023-05-14T17:09:48.591Z,1251
2023-05-14T17:11:04.828Z,1229
2023-05-14T17:12:21.107Z,1199
2023-05-14T17:13:37.314Z,1188
2023-05-14T17:14:53.596Z,1205
2023-05-14T17:16:08.802Z,1100
2023-05-14T17:17:25.041Z,1131
2023-05-14T17:18:41.288Z,1133
2023-05-14T17:19:57.520Z,1092
2023-05-14T17:21:13.765Z,1154
2023-05-14T17:22:30.003Z,1183
2023-05-14T17:23:46.233Z,1228
2023-05-14T17:25:02.474Z,1114
2023-05-14T17:26:18.719Z,1045
2023-05-14T17:27:34.961Z,884
2023-05-14T17:28:51.203Z,879
2023-05-14T17:30:07.432Z,958
2023-05-14T17:31:23.678Z,1044
2023-05-14T17:32:39.917Z,966
2023-05-14T17:33:55.187Z,895
2023-05-14T17:35:11.425Z,866
2023-05-14T17:36:27.651Z,601
2023-05-14T17:37:43.903Z,812
2023-05-14T17:39:00.130Z,749